Time;durP1;ratioP1;P1;durP2;ratioP2;P2;SDS_P1;SDS_P2;PMS_P1;PMS_P2;Temp;Humidity;BMP_temperature;BMP_pressure;BME280_temperature;BME280_humidity;BME280_pressure;Samples;Min_cycle;Max_cycle;Signal;HPM_P1;HPM_P2
2022/05/09 02:46:01;;;;;;;;;;;;;;;;;;;;;
2022/05/09 05:19:47;;;;;;;;;;;;;;;;;;;;;
2022/05/09 07:28:18;;;;;;;;;;;;;;;;;;;;;
2022/05/09 10:31:31;;;;;;;;;18.75;16.50;;;;;23.13;38.11;102053.34;4540344;27;17856767;-83
2022/05/09 10:34:31;;;;;;;;;13.75;11.25;;;;;23.27;37.71;102044.78;5159664;27;45311;-79
2022/05/09 10:37:29;;;;;;;;;10.75;10.00;;;;;23.60;37.61;102068.66;5158961;27;45331;-81
2022/05/09 10:40:45;;;;;;;;;16.25;14.75;;;;;23.75;36.91;102071.69;5149537;27;46074;-83
2022/05/09 10:47:18;;;;;;;;;14.00;13.00;;;;;23.89;36.13;102038.00;5093569;27;46329;-81
2022/05/09 10:50:09;;;;;;;;;11.75;11.75;;;;;24.17;35.49;102068.28;5158481;27;45434;-82
2022/05/09 10:53:22;;;;;;;;;11.25;10.25;;;;;24.27;35.66;102052.66;5159067;27;46195;-82
2022/05/09 10:56:07;;;;;;;;;14.50;12.25;;;;;24.30;34.32;102044.47;5076680;27;45486;-83
2022/05/09 10:58:56;;;;;;;;;9.50;8.50;;;;;24.47;33.94;102051.00;5139955;27;45309;-79
2022/05/09 11:05:18;;;;;;;;;15.00;13.00;;;;;24.76;34.21;102041.69;5076555;27;46252;-80
2022/05/09 11:08:19;;;;;;;;;12.75;11.50;;;;;24.91;34.29;102049.09;5177764;27;45357;-80
2022/05/09 11:11:42;;;;;;;;;10.75;10.75;;;;;25.02;34.45;102052.25;5179346;27;45209;-83
2022/05/09 11:14:41;;;;;;;;;11.67;11.67;;;;;25.15;33.42;102047.19;5159607;27;45322;-82
2022/05/09 11:18:19;;;;;;;;;10.75;9.50;;;;;25.26;33.00;102041.31;5158218;27;45341;-81
2022/05/09 11:21:45;;;;;;;;;;;;;;;;;;;;;
2022/05/09 11:25:10;;;;;;;;;;;;;;;;;;;;;
2022/05/09 11:28:36;;;;;;;;;15.50;13.50;;;;;25.59;33.32;102040.75;5069441;27;72747;-82
2022/05/09 11:32:09;;;;;;;;;13.00;13.00;;;;;25.72;32.71;102031.16;5098249;27;47140;-81
2022/05/09 11:35:34;;;;;;;;;14.50;13.50;;;;;25.75;33.13;102012.13;5170181;27;45376;-80
2022/05/09 11:39:03;;;;;;;;;12.75;12.75;;;;;25.88;32.82;102028.66;5138808;27;45344;-81
2022/05/09 11:45:39;;;;;;;;;11.25;11.25;;;;;25.94;32.50;102022.94;5105568;27;45814;-81
2022/05/09 11:49:00;;;;;;;;;;;;;;;;;;;;;
2022/05/09 11:52:14;;;;;;;;;13.75;11.25;;;;;26.02;32.27;102004.56;5164222;27;68672;-81
2022/05/09 11:54:58;;;;;;;;;13.25;12.25;;;;;26.18;32.26;102019.06;5164858;27;45225;-83
2022/05/09 12:05:50;;;;;;;;;13.50;12.50;;;;;26.39;31.17;102005.44;4960431;28;45283;-81
2022/05/09 12:09:03;;;;;;;;;;;;;;;;;;;;;
2022/05/09 12:15:12;;;;;;;;;;;;;;;;;;;;;
2022/05/09 12:18:32;;;;;;;;;12.75;12.75;;;;;26.59;30.90;101956.72;5078571;28;67534;-82
2022/05/09 12:21:53;;;;;;;;;;;;;;;;;;;;;
2022/05/09 12:25:01;;;;;;;;;14.00;11.50;;;;;27.09;30.21;101992.84;5142367;27;74274;-81
2022/05/09 12:43:00;;;;;;;;;;;;;;;;;;;;;
2022/05/09 12:54:06;;;;;;;;;;;;;;;;;;;;;
2022/05/09 12:56:59;;;;;;;;;15.25;11.50;;;;;28.03;29.63;101944.41;5128917;27;45510;-81
2022/05/09 13:00:16;;;;;;;;;14.50;13.50;;;;;28.13;29.14;101922.13;5137222;27;45284;-79
2022/05/09 13:03:30;;;;;;;;;15.75;14.75;;;;;28.21;28.74;101904.56;5116114;27;45483;-79
2022/05/09 13:06:53;;;;;;;;;15.25;13.25;;;;;28.36;28.59;101904.50;5024496;28;46574;-79
2022/05/09 13:13:49;;;;;;;;;14.50;14.00;;;;;28.59;28.24;101913.09;5009763;28;45525;-82
2022/05/09 13:17:11;;;;;;;;;;;;;;;;;;;;;
2022/05/09 13:20:41;;;;;;;;;12.75;12.00;;;;;28.67;27.83;101909.94;4984292;28;74165;-81
2022/05/09 13:24:09;;;;;;;;;;;;;;;;;;;;;
2022/05/09 13:27:08;;;;;;;;;14.00;14.00;;;;;28.69;27.41;101891.75;5149990;27;68701;-82
2022/05/09 13:30:04;;;;;;;;;12.50;12.50;;;;;28.81;27.01;101899.09;5119737;27;45587;-81
2022/05/09 13:33:01;;;;;;;;;12.50;12.50;;;;;28.86;27.34;101906.94;5125158;27;45415;-81
2022/05/09 13:36:01;;;;;;;;;11.75;11.75;;;;;28.95;27.70;101900.94;5130495;27;45395;-81
2022/05/09 13:39:29;;;;;;;;;15.75;13.00;;;;;29.02;27.37;101886.03;5134292;27;45284;-81
2022/05/09 13:49:00;;;;;;;;;14.00;14.00;;;;;29.33;26.41;101890.41;5135668;27;45483;-81
2022/05/09 13:56:17;;;;;;;;;12.00;11.25;;;;;29.32;26.80;101868.78;5044554;28;45297;-81
2022/05/09 13:59:28;;;;;;;;;12.75;12.75;;;;;29.47;26.69;101854.22;4997562;28;45311;-82
2022/05/09 14:02:37;;;;;;;;;;;;;;;;;;;;;
2022/05/09 14:05:58;;;;;;;;;;;;;;;;;;;;;
2022/05/09 14:09:36;;;;;;;;;11.50;10.75;;;;;29.01;26.26;101876.16;5114041;27;71507;-83
2022/05/09 14:12:49;;;;;;;;;11.75;11.75;;;;;28.68;27.10;101861.06;5123582;27;46059;-82
2022/05/09 14:15:55;;;;;;;;;11.50;11.50;;;;;28.56;27.41;101864.53;5136352;27;45190;-80
2022/05/09 14:39:49;;;;;;;;;12.00;12.00;;;;;29.32;26.26;101855.22;5019933;28;45648;-85
2022/05/09 14:45:55;;;;;;;;;13.75;10.25;;;;;29.29;26.04;101826.44;5131753;27;45294;-85
2022/05/09 14:49:44;;;;;;;;;;;;;;;;;;;;;
2022/05/09 16:28:45;;;;;;;;;;;;;;;;;;;;;
2022/05/09 18:53:07;;;;;;;;;8.50;8.00;;;;;26.25;29.79;101762.25;4979314;28;45349;-80
2022/05/09 18:55:35;;;;;;;;;9.00;8.50;;;;;26.12;29.71;101757.53;4995927;28;46337;-81
2022/05/09 18:58:05;;;;;;;;;7.50;7.50;;;;;26.01;29.30;101759.91;4994942;28;45880;-79
2022/05/09 19:08:11;;;;;;;;;;;;;;;;;;;;;
2022/05/09 19:23:10;;;;;;;;;;;;;;;;;;;;;
2022/05/09 19:25:38;;;;;;;;;;;;;;;;;;;;;
2022/05/09 19:28:12;;;;;;;;;8.25;8.25;;;;;24.85;32.14;101794.31;4929416;28;45511;-82
2022/05/09 19:30:38;;;;;;;;;5.75;5.50;;;;;24.63;32.52;101780.97;4989268;28;45549;-82
2022/05/09 19:33:24;;;;;;;;;10.00;9.00;;;;;24.72;31.98;101809.31;4997215;28;46312;-82
2022/05/09 19:35:58;;;;;;;;;7.50;7.25;;;;;24.44;32.76;101780.09;4989993;28;45495;-82
2022/05/09 19:38:28;;;;;;;;;11.00;10.00;;;;;24.50;32.86;101798.66;4982296;28;45497;-81
2022/05/09 19:41:02;;;;;;;;;9.75;8.25;;;;;24.50;33.08;101811.25;4982260;28;45514;-82
2022/05/09 19:43:30;;;;;;;;;9.00;7.00;;;;;24.24;32.63;101786.31;4975178;28;46763;-83
2022/05/09 19:46:22;;;;;;;;;11.25;9.25;;;;;24.25;33.01;101793.47;4982536;28;45856;-83
2022/05/09 19:48:48;;;;;;;;;10.25;9.25;;;;;24.27;33.24;101812.22;4965969;28;45699;-81
2022/05/09 19:51:27;;;;;;;;;;;;;;;;;;;;;
2022/05/09 20:05:18;;;;;;;;;10.25;9.25;;;;;24.05;33.87;101823.91;4911082;29;45766;-83
2022/05/09 20:08:35;;;;;;;;;;;;;;;;;;;;;
2022/05/09 20:11:39;;;;;;;;;11.75;11.50;;;;;23.80;33.92;101801.69;4782676;29;72859;-83
2022/05/09 20:24:38;;;;;;;;;;;;;;;;;;;;;
2022/05/09 20:31:17;;;;;;;;;8.25;8.25;;;;;23.37;35.36;101790.00;4818079;29;45634;-84
2022/05/09 20:33:57;;;;;;;;;12.75;10.25;;;;;23.54;35.50;101822.44;4877378;29;47785;-82
2022/05/09 20:37:13;;;;;;;;;;;;;;;;;;;;;
2022/05/09 20:40:09;;;;;;;;;12.75;12.75;;;;;23.50;35.80;101829.75;4985284;28;67503;-83
2022/05/09 20:43:19;;;;;;;;;;;;;;;;;;;;;
2022/05/09 20:46:40;;;;;;;;;;;;;;;;;;;;;
2022/05/09 20:53:14;;;;;;;;;;;;;;;;;;;;;
2022/05/09 20:55:57;;;;;;;;;;;;;;;;;;;;;
2022/05/09 20:58:35;;;;;;;;;12.25;12.25;;;;;23.07;36.26;101823.41;4978681;28;73709;-84
2022/05/09 21:05:25;;;;;;;;;13.75;13.75;;;;;22.79;36.94;101803.88;4981497;28;45462;-82
2022/05/09 21:07:56;;;;;;;;;17.00;13.50;;;;;22.73;36.88;101791.53;4946441;28;46548;-82
2022/05/09 21:10:24;;;;;;;;;15.25;14.75;;;;;22.79;36.86;101819.97;4992472;28;48343;-80
2022/05/09 21:51:34;;;;;;;;;;;;;;;;;;;;;
2022/05/09 21:58:49;;;;;;;;;;;;;;;;;;;;;
2022/05/09 22:26:20;;;;;;;;;;;;;;;;;;;;;
2022/05/09 22:35:44;;;;;;;;;;;;;;;;;;;;;
2022/05/09 22:38:38;;;;;;;;;23.00;23.00;;;;;21.67;40.49;101738.97;4761611;29;69318;-82
2022/05/09 22:41:13;;;;;;;;;19.75;18.25;;;;;21.68;40.32;101748.78;4759084;29;45334;-82
2022/05/09 22:43:44;;;;;;;;;22.50;20.75;;;;;21.64;40.23;101739.06;4896634;28;47191;-83
2022/05/09 22:53:57;;;;;;;;;22.50;21.75;;;;;21.78;40.84;101773.44;4969843;28;44833;-83
2022/05/09 22:56:31;;;;;;;;;18.50;18.50;;;;;21.63;40.50;101753.41;4974953;28;47887;-82
2022/05/09 22:59:41;;;;;;;;;;;;;;;;;;;;;
2022/05/09 23:02:07;;;;;;;;;23.25;21.75;;;;;21.56;40.73;101750.06;4981542;28;68774;-81
2022/05/09 23:04:33;;;;;;;;;24.25;24.25;;;;;21.64;40.89;101759.66;4989080;28;45492;-81
2022/05/09 23:08:15;;;;;;;;;;;;;;;;;;;;;
2022/05/09 23:37:14;;;;;;;;;;;;;;;;;;;;;
2022/05/09 23:39:40;;;;;;;;;18.50;17.50;;;;;21.27;41.63;101724.19;4703732;29;72974;-82
2022/05/09 23:42:09;;;;;;;;;24.00;22.75;;;;;21.26;42.26;101738.53;4870184;28;45312;-83
2022/05/09 23:44:35;;;;;;;;;27.75;23.25;;;;;21.10;42.24;101708.69;4951516;28;45521;-83
2022/05/09 23:47:03;;;;;;;;;33.50;29.50;;;;;21.16;42.71;101721.00;4955432;28;48217;-83
2022/05/09 23:49:31;;;;;;;;;30.50;27.00;;;;;21.05;42.82;101705.25;4955223;28;45366;-83
2022/05/09 23:52:01;;;;;;;;;26.25;21.00;;;;;20.97;42.99;101698.41;4945981;28;45247;-83
2022/05/09 23:54:29;;;;;;;;;24.00;23.25;;;;;20.92;43.04;101690.50;4949393;28;45629;-82
2022/05/09 23:56:54;;;;;;;;;24.75;21.75;;;;;21.01;43.42;101702.72;4959820;28;46270;-83
2022/05/09 23:59:50;;;;;;;;;;;;;;;;;;;;;
